sensor_id;sensor_type;location;lat;lon;timestamp;P1;durP1;ratioP1;P2;durP2;ratioP2
4696;SDS011;2362;50.780;0.292;2023-02-21T00:01:56;14.30;;;7.87;;
4696;SDS011;2362;50.780;0.292;2023-02-21T00:04:41;17.58;;;7.20;;
4696;SDS011;2362;50.780;0.292;2023-02-21T00:07:25;17.10;;;7.35;;
4696;SDS011;2362;50.780;0.292;2023-02-21T00:10:11;14.13;;;8.70;;
4696;SDS011;2362;50.780;0.292;2023-02-21T00:12:57;15.27;;;8.10;;
4696;SDS011;2362;50.780;0.292;2023-02-21T00:15:41;18.65;;;8.80;;
4696;SDS011;2362;50.780;0.292;2023-02-21T00:18:26;13.32;;;8.63;;
4696;SDS011;2362;50.780;0.292;2023-02-21T00:21:10;18.70;;;10.20;;
4696;SDS011;2362;50.780;0.292;2023-02-21T00:23:54;17.50;;;10.40;;
4696;SDS011;2362;50.780;0.292;2023-02-21T00:26:38;22.77;;;11.40;;
4696;SDS011;2362;50.780;0.292;2023-02-21T00:29:23;22.38;;;11.65;;
4696;SDS011;2362;50.780;0.292;2023-02-21T00:32:07;16.70;;;11.82;;
4696;SDS011;2362;50.780;0.292;2023-02-21T00:34:52;19.45;;;11.35;;
4696;SDS011;2362;50.780;0.292;2023-02-21T00:37:36;22.40;;;12.07;;
4696;SDS011;2362;50.780;0.292;2023-02-21T00:40:20;22.73;;;12.30;;
4696;SDS011;2362;50.780;0.292;2023-02-21T00:43:04;24.38;;;11.85;;
4696;SDS011;2362;50.780;0.292;2023-02-21T00:45:49;30.38;;;15.10;;
4696;SDS011;2362;50.780;0.292;2023-02-21T00:48:33;20.58;;;12.10;;
4696;SDS011;2362;50.780;0.292;2023-02-21T00:51:17;21.00;;;13.10;;
4696;SDS011;2362;50.780;0.292;2023-02-21T00:54:01;18.73;;;12.60;;
4696;SDS011;2362;50.780;0.292;2023-02-21T00:56:46;22.52;;;12.35;;
4696;SDS011;2362;50.780;0.292;2023-02-21T00:59:30;28.20;;;13.35;;
4696;SDS011;2362;50.780;0.292;2023-02-21T01:02:14;24.95;;;14.38;;
4696;SDS011;2362;50.780;0.292;2023-02-21T01:04:58;29.13;;;14.93;;
4696;SDS011;2362;50.780;0.292;2023-02-21T01:07:42;34.58;;;15.82;;
4696;SDS011;2362;50.780;0.292;2023-02-21T01:10:26;26.73;;;14.23;;
4696;SDS011;2362;50.780;0.292;2023-02-21T01:13:10;37.92;;;16.50;;
4696;SDS011;2362;50.780;0.292;2023-02-21T01:16:20;37.03;;;18.88;;
4696;SDS011;2362;50.780;0.292;2023-02-21T01:19:05;41.65;;;23.02;;
4696;SDS011;2362;50.780;0.292;2023-02-21T01:21:49;43.88;;;24.58;;
4696;SDS011;2362;50.780;0.292;2023-02-21T01:24:33;49.58;;;26.38;;
4696;SDS011;2362;50.780;0.292;2023-02-21T01:27:18;52.00;;;27.42;;
4696;SDS011;2362;50.780;0.292;2023-02-21T01:30:02;50.55;;;27.98;;
4696;SDS011;2362;50.780;0.292;2023-02-21T01:32:47;51.60;;;28.30;;
4696;SDS011;2362;50.780;0.292;2023-02-21T01:35:31;45.28;;;27.58;;
4696;SDS011;2362;50.780;0.292;2023-02-21T01:38:16;53.58;;;30.45;;
4696;SDS011;2362;50.780;0.292;2023-02-21T01:41:00;53.67;;;29.92;;
4696;SDS011;2362;50.780;0.292;2023-02-21T01:44:04;49.90;;;28.85;;
4696;SDS011;2362;50.780;0.292;2023-02-21T01:47:06;42.05;;;26.10;;
4696;SDS011;2362;50.780;0.292;2023-02-21T01:49:53;46.30;;;27.10;;
4696;SDS011;2362;50.780;0.292;2023-02-21T01:52:38;45.50;;;26.88;;
4696;SDS011;2362;50.780;0.292;2023-02-21T01:55:22;45.45;;;27.92;;
4696;SDS011;2362;50.780;0.292;2023-02-21T01:58:07;40.38;;;26.08;;
4696;SDS011;2362;50.780;0.292;2023-02-21T02:00:51;45.10;;;24.35;;
4696;SDS011;2362;50.780;0.292;2023-02-21T02:03:36;44.60;;;24.67;;
4696;SDS011;2362;50.780;0.292;2023-02-21T02:06:21;33.88;;;21.58;;
4696;SDS011;2362;50.780;0.292;2023-02-21T02:09:08;31.27;;;19.13;;
4696;SDS011;2362;50.780;0.292;2023-02-21T02:18:00;30.50;;;15.68;;
4696;SDS011;2362;50.780;0.292;2023-02-21T02:31:46;28.08;;;14.75;;
4696;SDS011;2362;50.780;0.292;2023-02-21T02:46:04;22.45;;;13.57;;
4696;SDS011;2362;50.780;0.292;2023-02-21T02:48:36;25.77;;;12.87;;
4696;SDS011;2362;50.780;0.292;2023-02-21T02:51:36;17.65;;;11.23;;
4696;SDS011;2362;50.780;0.292;2023-02-21T02:54:02;19.25;;;12.15;;
4696;SDS011;2362;50.780;0.292;2023-02-21T02:56:28;14.77;;;10.63;;
4696;SDS011;2362;50.780;0.292;2023-02-21T02:58:55;17.10;;;8.98;;
4696;SDS011;2362;50.780;0.292;2023-02-21T03:02:05;15.73;;;9.82;;
4696;SDS011;2362;50.780;0.292;2023-02-21T03:04:53;18.55;;;8.90;;
4696;SDS011;2362;50.780;0.292;2023-02-21T03:07:39;15.23;;;8.68;;
4696;SDS011;2362;50.780;0.292;2023-02-21T03:15:47;14.00;;;8.15;;
4696;SDS011;2362;50.780;0.292;2023-02-21T03:18:23;15.30;;;8.75;;
4696;SDS011;2362;50.780;0.292;2023-02-21T03:21:08;12.90;;;8.18;;
4696;SDS011;2362;50.780;0.292;2023-02-21T03:23:38;14.75;;;7.55;;
4696;SDS011;2362;50.780;0.292;2023-02-21T03:26:05;10.77;;;7.95;;
4696;SDS011;2362;50.780;0.292;2023-02-21T03:28:34;18.02;;;8.73;;
4696;SDS011;2362;50.780;0.292;2023-02-21T03:31:01;12.95;;;8.25;;
4696;SDS011;2362;50.780;0.292;2023-02-21T03:33:29;15.65;;;8.15;;
4696;SDS011;2362;50.780;0.292;2023-02-21T03:35:57;14.80;;;7.75;;
4696;SDS011;2362;50.780;0.292;2023-02-21T03:38:26;13.60;;;8.68;;
4696;SDS011;2362;50.780;0.292;2023-02-21T03:40:53;18.52;;;8.23;;
4696;SDS011;2362;50.780;0.292;2023-02-21T03:43:19;14.77;;;8.05;;
4696;SDS011;2362;50.780;0.292;2023-02-21T03:45:45;15.38;;;8.48;;
4696;SDS011;2362;50.780;0.292;2023-02-21T03:48:10;16.80;;;9.23;;
4696;SDS011;2362;50.780;0.292;2023-02-21T03:50:36;18.80;;;9.20;;
4696;SDS011;2362;50.780;0.292;2023-02-21T03:53:02;15.45;;;9.90;;
4696;SDS011;2362;50.780;0.292;2023-02-21T03:55:28;19.85;;;9.65;;
4696;SDS011;2362;50.780;0.292;2023-02-21T03:57:54;17.00;;;10.23;;
4696;SDS011;2362;50.780;0.292;2023-02-21T04:00:19;21.13;;;10.90;;
4696;SDS011;2362;50.780;0.292;2023-02-21T04:02:45;17.25;;;9.98;;
4696;SDS011;2362;50.780;0.292;2023-02-21T04:05:11;13.20;;;9.45;;
4696;SDS011;2362;50.780;0.292;2023-02-21T04:07:37;23.50;;;12.52;;
4696;SDS011;2362;50.780;0.292;2023-02-21T04:10:03;16.58;;;11.82;;
4696;SDS011;2362;50.780;0.292;2023-02-21T04:12:29;17.63;;;11.65;;
4696;SDS011;2362;50.780;0.292;2023-02-21T04:14:55;21.65;;;12.57;;
4696;SDS011;2362;50.780;0.292;2023-02-21T04:17:22;18.67;;;11.30;;
4696;SDS011;2362;50.780;0.292;2023-02-21T04:19:48;18.90;;;12.50;;
4696;SDS011;2362;50.780;0.292;2023-02-21T04:22:14;16.65;;;11.13;;
4696;SDS011;2362;50.780;0.292;2023-02-21T04:24:39;21.27;;;13.85;;
4696;SDS011;2362;50.780;0.292;2023-02-21T04:27:06;27.35;;;14.73;;
4696;SDS011;2362;50.780;0.292;2023-02-21T04:29:32;23.83;;;14.77;;
4696;SDS011;2362;50.780;0.292;2023-02-21T04:31:58;24.58;;;15.52;;
4696;SDS011;2362;50.780;0.292;2023-02-21T04:34:24;23.20;;;14.75;;
4696;SDS011;2362;50.780;0.292;2023-02-21T04:36:49;23.63;;;15.45;;
4696;SDS011;2362;50.780;0.292;2023-02-21T04:39:18;19.42;;;13.23;;
4696;SDS011;2362;50.780;0.292;2023-02-21T04:41:44;23.85;;;13.00;;
4696;SDS011;2362;50.780;0.292;2023-02-21T04:44:10;21.02;;;12.32;;
4696;SDS011;2362;50.780;0.292;2023-02-21T04:46:36;18.48;;;12.50;;
4696;SDS011;2362;50.780;0.292;2023-02-21T04:49:02;18.02;;;12.77;;
4696;SDS011;2362;50.780;0.292;2023-02-21T04:51:31;24.75;;;14.23;;
4696;SDS011;2362;50.780;0.292;2023-02-21T04:53:56;23.70;;;14.70;;
4696;SDS011;2362;50.780;0.292;2023-02-21T04:56:23;27.52;;;15.90;;
4696;SDS011;2362;50.780;0.292;2023-02-21T04:58:53;24.15;;;15.88;;
4696;SDS011;2362;50.780;0.292;2023-02-21T05:01:19;28.58;;;17.35;;
4696;SDS011;2362;50.780;0.292;2023-02-21T05:03:46;30.08;;;18.52;;
4696;SDS011;2362;50.780;0.292;2023-02-21T05:06:22;29.95;;;18.65;;
4696;SDS011;2362;50.780;0.292;2023-02-21T05:08:49;30.63;;;19.63;;
4696;SDS011;2362;50.780;0.292;2023-02-21T05:11:15;33.95;;;20.65;;
4696;SDS011;2362;50.780;0.292;2023-02-21T05:13:42;35.72;;;22.95;;
4696;SDS011;2362;50.780;0.292;2023-02-21T05:16:09;38.55;;;24.02;;
4696;SDS011;2362;50.780;0.292;2023-02-21T05:18:34;36.15;;;21.75;;
4696;SDS011;2362;50.780;0.292;2023-02-21T05:21:02;36.85;;;23.23;;
4696;SDS011;2362;50.780;0.292;2023-02-21T05:23:31;39.22;;;23.83;;
4696;SDS011;2362;50.780;0.292;2023-02-21T05:28:37;38.45;;;25.15;;
4696;SDS011;2362;50.780;0.292;2023-02-21T05:31:04;36.45;;;23.33;;
4696;SDS011;2362;50.780;0.292;2023-02-21T05:33:31;37.88;;;25.55;;
4696;SDS011;2362;50.780;0.292;2023-02-21T05:35:57;37.92;;;24.77;;
4696;SDS011;2362;50.780;0.292;2023-02-21T05:38:23;43.08;;;25.30;;
4696;SDS011;2362;50.780;0.292;2023-02-21T05:40:50;39.45;;;25.25;;
4696;SDS011;2362;50.780;0.292;2023-02-21T05:43:16;39.90;;;27.25;;
4696;SDS011;2362;50.780;0.292;2023-02-21T05:45:42;43.63;;;25.27;;
4696;SDS011;2362;50.780;0.292;2023-02-21T05:48:08;40.13;;;25.02;;
4696;SDS011;2362;50.780;0.292;2023-02-21T05:50:34;42.75;;;27.63;;
4696;SDS011;2362;50.780;0.292;2023-02-21T05:53:00;42.78;;;24.13;;
4696;SDS011;2362;50.780;0.292;2023-02-21T05:55:26;45.65;;;26.70;;
4696;SDS011;2362;50.780;0.292;2023-02-21T05:57:52;49.22;;;29.42;;
4696;SDS011;2362;50.780;0.292;2023-02-21T06:00:19;45.00;;;26.70;;
4696;SDS011;2362;50.780;0.292;2023-02-21T06:02:48;43.25;;;28.10;;
4696;SDS011;2362;50.780;0.292;2023-02-21T06:05:16;43.50;;;28.50;;
4696;SDS011;2362;50.780;0.292;2023-02-21T06:07:42;43.78;;;29.73;;
4696;SDS011;2362;50.780;0.292;2023-02-21T06:10:08;46.42;;;30.38;;
4696;SDS011;2362;50.780;0.292;2023-02-21T06:12:34;54.08;;;31.90;;
4696;SDS011;2362;50.780;0.292;2023-02-21T06:15:00;41.67;;;28.05;;
4696;SDS011;2362;50.780;0.292;2023-02-21T06:17:26;50.65;;;29.15;;
4696;SDS011;2362;50.780;0.292;2023-02-21T06:19:54;45.65;;;29.27;;
4696;SDS011;2362;50.780;0.292;2023-02-21T06:22:21;48.85;;;30.77;;
4696;SDS011;2362;50.780;0.292;2023-02-21T06:24:46;44.97;;;28.90;;
4696;SDS011;2362;50.780;0.292;2023-02-21T06:27:12;47.28;;;27.67;;
4696;SDS011;2362;50.780;0.292;2023-02-21T06:29:39;47.92;;;29.60;;
4696;SDS011;2362;50.780;0.292;2023-02-21T06:32:05;42.08;;;27.05;;
4696;SDS011;2362;50.780;0.292;2023-02-21T06:34:31;49.45;;;30.85;;
4696;SDS011;2362;50.780;0.292;2023-02-21T06:36:57;42.35;;;27.40;;
4696;SDS011;2362;50.780;0.292;2023-02-21T06:39:22;39.28;;;26.45;;
4696;SDS011;2362;50.780;0.292;2023-02-21T06:41:48;48.65;;;29.08;;
4696;SDS011;2362;50.780;0.292;2023-02-21T06:44:41;40.65;;;27.00;;
4696;SDS011;2362;50.780;0.292;2023-02-21T06:47:35;48.20;;;28.05;;
4696;SDS011;2362;50.780;0.292;2023-02-21T06:50:01;44.97;;;27.02;;
4696;SDS011;2362;50.780;0.292;2023-02-21T06:52:27;54.13;;;28.63;;
4696;SDS011;2362;50.780;0.292;2023-02-21T06:54:54;48.92;;;29.73;;
4696;SDS011;2362;50.780;0.292;2023-02-21T06:57:19;51.65;;;30.70;;
4696;SDS011;2362;50.780;0.292;2023-02-21T06:59:45;50.17;;;30.30;;
4696;SDS011;2362;50.780;0.292;2023-02-21T07:02:15;57.08;;;30.92;;
4696;SDS011;2362;50.780;0.292;2023-02-21T07:04:42;51.40;;;30.00;;
4696;SDS011;2362;50.780;0.292;2023-02-21T07:07:08;48.40;;;28.40;;
4696;SDS011;2362;50.780;0.292;2023-02-21T07:09:34;48.85;;;30.40;;
4696;SDS011;2362;50.780;0.292;2023-02-21T07:11:59;50.20;;;29.63;;
4696;SDS011;2362;50.780;0.292;2023-02-21T07:14:27;36.55;;;24.35;;
4696;SDS011;2362;50.780;0.292;2023-02-21T07:16:52;47.65;;;28.25;;
4696;SDS011;2362;50.780;0.292;2023-02-21T07:19:18;50.88;;;29.25;;
4696;SDS011;2362;50.780;0.292;2023-02-21T07:21:46;48.70;;;28.75;;
4696;SDS011;2362;50.780;0.292;2023-02-21T07:24:12;47.47;;;30.55;;
4696;SDS011;2362;50.780;0.292;2023-02-21T07:26:37;50.05;;;29.67;;
4696;SDS011;2362;50.780;0.292;2023-02-21T07:29:04;55.15;;;30.75;;
4696;SDS011;2362;50.780;0.292;2023-02-21T07:31:30;48.63;;;28.08;;
4696;SDS011;2362;50.780;0.292;2023-02-21T07:33:56;45.45;;;28.63;;
4696;SDS011;2362;50.780;0.292;2023-02-21T07:36:21;44.30;;;28.67;;
4696;SDS011;2362;50.780;0.292;2023-02-21T07:38:47;42.35;;;26.65;;
4696;SDS011;2362;50.780;0.292;2023-02-21T07:41:13;48.88;;;29.27;;
4696;SDS011;2362;50.780;0.292;2023-02-21T07:43:40;44.38;;;29.40;;
4696;SDS011;2362;50.780;0.292;2023-02-21T07:46:12;49.30;;;30.05;;
4696;SDS011;2362;50.780;0.292;2023-02-21T07:48:39;50.25;;;29.23;;
4696;SDS011;2362;50.780;0.292;2023-02-21T07:51:08;50.15;;;30.25;;
4696;SDS011;2362;50.780;0.292;2023-02-21T07:53:35;41.90;;;26.60;;
4696;SDS011;2362;50.780;0.292;2023-02-21T07:56:01;49.83;;;28.40;;
4696;SDS011;2362;50.780;0.292;2023-02-21T07:58:27;49.55;;;27.70;;
4696;SDS011;2362;50.780;0.292;2023-02-21T08:00:53;45.33;;;27.65;;
4696;SDS011;2362;50.780;0.292;2023-02-21T08:03:20;37.20;;;24.02;;
4696;SDS011;2362;50.780;0.292;2023-02-21T08:05:46;37.75;;;24.70;;
4696;SDS011;2362;50.780;0.292;2023-02-21T08:08:13;41.15;;;26.13;;
4696;SDS011;2362;50.780;0.292;2023-02-21T08:10:40;41.72;;;26.85;;
4696;SDS011;2362;50.780;0.292;2023-02-21T08:13:05;36.80;;;23.77;;
4696;SDS011;2362;50.780;0.292;2023-02-21T08:15:31;39.55;;;25.27;;
4696;SDS011;2362;50.780;0.292;2023-02-21T08:17:57;39.25;;;25.98;;
4696;SDS011;2362;50.780;0.292;2023-02-21T08:20:22;42.85;;;24.83;;
4696;SDS011;2362;50.780;0.292;2023-02-21T08:22:48;42.00;;;27.10;;
4696;SDS011;2362;50.780;0.292;2023-02-21T08:25:15;43.55;;;25.10;;
4696;SDS011;2362;50.780;0.292;2023-02-21T08:27:41;49.78;;;29.15;;
4696;SDS011;2362;50.780;0.292;2023-02-21T08:30:08;52.20;;;31.77;;
4696;SDS011;2362;50.780;0.292;2023-02-21T08:32:35;54.75;;;30.92;;
4696;SDS011;2362;50.780;0.292;2023-02-21T08:35:02;50.45;;;27.92;;
4696;SDS011;2362;50.780;0.292;2023-02-21T08:37:29;50.97;;;28.52;;
4696;SDS011;2362;50.780;0.292;2023-02-21T08:39:57;51.15;;;26.75;;
4696;SDS011;2362;50.780;0.292;2023-02-21T08:42:23;46.90;;;23.98;;
4696;SDS011;2362;50.780;0.292;2023-02-21T08:44:50;50.65;;;23.77;;
4696;SDS011;2362;50.780;0.292;2023-02-21T08:47:15;43.17;;;22.85;;
4696;SDS011;2362;50.780;0.292;2023-02-21T08:49:45;50.78;;;24.30;;
4696;SDS011;2362;50.780;0.292;2023-02-21T08:52:15;46.50;;;21.90;;
4696;SDS011;2362;50.780;0.292;2023-02-21T08:54:43;43.45;;;20.92;;
4696;SDS011;2362;50.780;0.292;2023-02-21T08:57:10;38.97;;;20.20;;
4696;SDS011;2362;50.780;0.292;2023-02-21T08:59:40;31.90;;;16.33;;
4696;SDS011;2362;50.780;0.292;2023-02-21T09:02:10;30.40;;;15.40;;
4696;SDS011;2362;50.780;0.292;2023-02-21T09:04:43;32.22;;;15.60;;
4696;SDS011;2362;50.780;0.292;2023-02-21T09:07:13;25.48;;;11.98;;
4696;SDS011;2362;50.780;0.292;2023-02-21T09:09:40;23.60;;;11.75;;
4696;SDS011;2362;50.780;0.292;2023-02-21T09:12:06;22.45;;;11.98;;
4696;SDS011;2362;50.780;0.292;2023-02-21T09:14:33;22.20;;;11.55;;
4696;SDS011;2362;50.780;0.292;2023-02-21T09:17:06;17.38;;;10.27;;
4696;SDS011;2362;50.780;0.292;2023-02-21T09:19:34;16.67;;;8.98;;
4696;SDS011;2362;50.780;0.292;2023-02-21T09:21:59;17.23;;;9.27;;
4696;SDS011;2362;50.780;0.292;2023-02-21T09:24:27;13.40;;;7.95;;
4696;SDS011;2362;50.780;0.292;2023-02-21T09:26:56;11.98;;;6.53;;
4696;SDS011;2362;50.780;0.292;2023-02-21T09:29:23;12.00;;;6.63;;
4696;SDS011;2362;50.780;0.292;2023-02-21T09:31:50;13.82;;;4.88;;
4696;SDS011;2362;50.780;0.292;2023-02-21T09:34:15;6.05;;;3.50;;
4696;SDS011;2362;50.780;0.292;2023-02-21T09:36:41;3.95;;;2.40;;
4696;SDS011;2362;50.780;0.292;2023-02-21T09:39:07;4.85;;;2.72;;
4696;SDS011;2362;50.780;0.292;2023-02-21T09:41:33;4.32;;;1.90;;
4696;SDS011;2362;50.780;0.292;2023-02-21T09:44:00;2.33;;;1.60;;
4696;SDS011;2362;50.780;0.292;2023-02-21T09:46:30;3.67;;;1.55;;
4696;SDS011;2362;50.780;0.292;2023-02-21T09:49:00;2.25;;;1.40;;
4696;SDS011;2362;50.780;0.292;2023-02-21T09:51:29;3.42;;;1.10;;
4696;SDS011;2362;50.780;0.292;2023-02-21T09:53:56;1.70;;;1.00;;
4696;SDS011;2362;50.780;0.292;2023-02-21T09:56:28;2.25;;;0.90;;
4696;SDS011;2362;50.780;0.292;2023-02-21T09:58:58;2.67;;;0.60;;
4696;SDS011;2362;50.780;0.292;2023-02-21T10:03:52;1.27;;;0.50;;
4696;SDS011;2362;50.780;0.292;2023-02-21T10:17:20;2.03;;;0.68;;
4696;SDS011;2362;50.780;0.292;2023-02-21T10:20:13;0.30;;;0.20;;
4696;SDS011;2362;50.780;0.292;2023-02-21T10:22:43;0.20;;;0.20;;
4696;SDS011;2362;50.780;0.292;2023-02-21T10:25:18;0.35;;;0.20;;
4696;SDS011;2362;50.780;0.292;2023-02-21T10:27:56;1.48;;;0.35;;
4696;SDS011;2362;50.780;0.292;2023-02-21T10:30:25;0.20;;;0.10;;
4696;SDS011;2362;50.780;0.292;2023-02-21T10:33:02;0.60;;;0.40;;
4696;SDS011;2362;50.780;0.292;2023-02-21T10:35:33;5.65;;;0.40;;
4696;SDS011;2362;50.780;0.292;2023-02-21T10:38:01;0.20;;;0.20;;
4696;SDS011;2362;50.780;0.292;2023-02-21T10:43:16;0.10;;;0.10;;
4696;SDS011;2362;50.780;0.292;2023-02-21T10:46:13;3.13;;;0.13;;
4696;SDS011;2362;50.780;0.292;2023-02-21T10:48:46;0.73;;;0.50;;
4696;SDS011;2362;50.780;0.292;2023-02-21T10:51:17;2.80;;;0.65;;
4696;SDS011;2362;50.780;0.292;2023-02-21T10:53:58;0.77;;;0.32;;
4696;SDS011;2362;50.780;0.292;2023-02-21T10:56:50;0.35;;;0.35;;
4696;SDS011;2362;50.780;0.292;2023-02-21T10:59:40;0.30;;;0.30;;
4696;SDS011;2362;50.780;0.292;2023-02-21T11:02:24;0.43;;;0.43;;
4696;SDS011;2362;50.780;0.292;2023-02-21T11:04:56;0.60;;;0.20;;
4696;SDS011;2362;50.780;0.292;2023-02-21T11:08:05;0.38;;;0.10;;
4696;SDS011;2362;50.780;0.292;2023-02-21T11:10:38;0.82;;;0.30;;
4696;SDS011;2362;50.780;0.292;2023-02-21T11:13:15;6.88;;;0.30;;
4696;SDS011;2362;50.780;0.292;2023-02-21T11:15:42;0.20;;;0.10;;
4696;SDS011;2362;50.780;0.292;2023-02-21T11:18:17;3.55;;;0.20;;
4696;SDS011;2362;50.780;0.292;2023-02-21T11:20:46;0.13;;;0.13;;
4696;SDS011;2362;50.780;0.292;2023-02-21T11:23:18;2.72;;;0.43;;
4696;SDS011;2362;50.780;0.292;2023-02-21T11:25:56;0.70;;;0.40;;
4696;SDS011;2362;50.780;0.292;2023-02-21T11:28:37;0.60;;;0.38;;
4696;SDS011;2362;50.780;0.292;2023-02-21T11:31:19;3.20;;;1.17;;
4696;SDS011;2362;50.780;0.292;2023-02-21T11:34:03;7.90;;;3.63;;
4696;SDS011;2362;50.780;0.292;2023-02-21T11:36:48;2.40;;;1.08;;
4696;SDS011;2362;50.780;0.292;2023-02-21T11:42:03;1.42;;;0.30;;
4696;SDS011;2362;50.780;0.292;2023-02-21T11:44:47;1.02;;;0.40;;
4696;SDS011;2362;50.780;0.292;2023-02-21T11:47:24;0.40;;;0.40;;
4696;SDS011;2362;50.780;0.292;2023-02-21T11:50:09;1.15;;;0.40;;
4696;SDS011;2362;50.780;0.292;2023-02-21T11:53:12;2.08;;;0.43;;
4696;SDS011;2362;50.780;0.292;2023-02-21T11:59:02;0.50;;;0.50;;
4696;SDS011;2362;50.780;0.292;2023-02-21T12:02:01;3.97;;;0.70;;
4696;SDS011;2362;50.780;0.292;2023-02-21T12:21:56;2.63;;;2.03;;
4696;SDS011;2362;50.780;0.292;2023-02-21T12:32:43;6.43;;;2.58;;
4696;SDS011;2362;50.780;0.292;2023-02-21T12:35:38;4.70;;;2.33;;
4696;SDS011;2362;50.780;0.292;2023-02-21T12:43:50;4.90;;;1.75;;
4696;SDS011;2362;50.780;0.292;2023-02-21T12:48:58;2.85;;;2.03;;
4696;SDS011;2362;50.780;0.292;2023-02-21T12:51:48;2.42;;;1.83;;
4696;SDS011;2362;50.780;0.292;2023-02-21T12:57:21;4.18;;;1.52;;
4696;SDS011;2362;50.780;0.292;2023-02-21T13:00:02;2.05;;;1.20;;
4696;SDS011;2362;50.780;0.292;2023-02-21T13:08:18;10.50;;;4.57;;
4696;SDS011;2362;50.780;0.292;2023-02-21T13:13:37;5.53;;;2.85;;
4696;SDS011;2362;50.780;0.292;2023-02-21T13:16:04;12.48;;;2.60;;
4696;SDS011;2362;50.780;0.292;2023-02-21T13:18:35;7.55;;;3.25;;
4696;SDS011;2362;50.780;0.292;2023-02-21T13:24:01;5.20;;;2.38;;
4696;SDS011;2362;50.780;0.292;2023-02-21T13:30:40;4.00;;;2.63;;
4696;SDS011;2362;50.780;0.292;2023-02-21T13:32:51;7.20;;;2.45;;
4696;SDS011;2362;50.780;0.292;2023-02-21T13:35:20;7.95;;;3.45;;
4696;SDS011;2362;50.780;0.292;2023-02-21T13:38:07;12.07;;;3.03;;
4696;SDS011;2362;50.780;0.292;2023-02-21T13:40:52;6.65;;;1.88;;
4696;SDS011;2362;50.780;0.292;2023-02-21T13:43:28;14.48;;;2.47;;
4696;SDS011;2362;50.780;0.292;2023-02-21T14:06:18;8.18;;;2.85;;
4696;SDS011;2362;50.780;0.292;2023-02-21T14:22:25;14.23;;;3.03;;
4696;SDS011;2362;50.780;0.292;2023-02-21T14:27:50;9.45;;;3.33;;
4696;SDS011;2362;50.780;0.292;2023-02-21T14:30:28;12.45;;;3.13;;
4696;SDS011;2362;50.780;0.292;2023-02-21T14:32:59;8.35;;;3.67;;
4696;SDS011;2362;50.780;0.292;2023-02-21T14:35:50;8.82;;;2.92;;
4696;SDS011;2362;50.780;0.292;2023-02-21T14:41:38;9.52;;;3.15;;
4696;SDS011;2362;50.780;0.292;2023-02-21T14:44:08;8.35;;;3.83;;
4696;SDS011;2362;50.780;0.292;2023-02-21T14:57:32;13.45;;;3.40;;
4696;SDS011;2362;50.780;0.292;2023-02-21T15:03:20;8.75;;;3.65;;
4696;SDS011;2362;50.780;0.292;2023-02-21T15:08:20;7.68;;;4.22;;
4696;SDS011;2362;50.780;0.292;2023-02-21T15:10:49;11.90;;;5.60;;
4696;SDS011;2362;50.780;0.292;2023-02-21T15:13:24;14.40;;;5.05;;
4696;SDS011;2362;50.780;0.292;2023-02-21T15:16:02;9.70;;;4.43;;
4696;SDS011;2362;50.780;0.292;2023-02-21T15:18:30;10.60;;;4.05;;
4696;SDS011;2362;50.780;0.292;2023-02-21T15:21:03;17.50;;;8.43;;
4696;SDS011;2362;50.780;0.292;2023-02-21T15:23:29;6.70;;;4.63;;
4696;SDS011;2362;50.780;0.292;2023-02-21T15:25:59;9.63;;;4.25;;
4696;SDS011;2362;50.780;0.292;2023-02-21T15:28:41;13.15;;;5.75;;
4696;SDS011;2362;50.780;0.292;2023-02-21T15:31:08;13.18;;;6.45;;
4696;SDS011;2362;50.780;0.292;2023-02-21T15:33:41;9.82;;;5.13;;
4696;SDS011;2362;50.780;0.292;2023-02-21T15:44:11;20.10;;;7.90;;
4696;SDS011;2362;50.780;0.292;2023-02-21T15:46:57;10.18;;;4.95;;
4696;SDS011;2362;50.780;0.292;2023-02-21T15:49:30;16.88;;;4.40;;
4696;SDS011;2362;50.780;0.292;2023-02-21T15:52:00;9.90;;;4.07;;
4696;SDS011;2362;50.780;0.292;2023-02-21T15:54:29;10.20;;;4.20;;
4696;SDS011;2362;50.780;0.292;2023-02-21T15:59:35;15.85;;;5.53;;
4696;SDS011;2362;50.780;0.292;2023-02-21T16:02:21;10.55;;;3.97;;
4696;SDS011;2362;50.780;0.292;2023-02-21T16:04:49;15.32;;;5.22;;
4696;SDS011;2362;50.780;0.292;2023-02-21T16:07:49;11.38;;;4.47;;
4696;SDS011;2362;50.780;0.292;2023-02-21T16:10:13;9.13;;;4.20;;
4696;SDS011;2362;50.780;0.292;2023-02-21T16:12:42;10.23;;;4.25;;
4696;SDS011;2362;50.780;0.292;2023-02-21T16:15:21;9.38;;;4.05;;
4696;SDS011;2362;50.780;0.292;2023-02-21T16:17:53;16.75;;;7.38;;
4696;SDS011;2362;50.780;0.292;2023-02-21T16:20:26;7.28;;;4.97;;
4696;SDS011;2362;50.780;0.292;2023-02-21T16:23:12;15.10;;;6.28;;
4696;SDS011;2362;50.780;0.292;2023-02-21T16:28:36;11.10;;;6.05;;
4696;SDS011;2362;50.780;0.292;2023-02-21T16:31:04;18.40;;;6.82;;
4696;SDS011;2362;50.780;0.292;2023-02-21T16:33:31;15.55;;;6.63;;
4696;SDS011;2362;50.780;0.292;2023-02-21T16:35:58;15.77;;;6.93;;
4696;SDS011;2362;50.780;0.292;2023-02-21T16:38:28;13.02;;;6.97;;
4696;SDS011;2362;50.780;0.292;2023-02-21T16:40:54;17.67;;;7.28;;
4696;SDS011;2362;50.780;0.292;2023-02-21T16:43:23;13.40;;;7.57;;
4696;SDS011;2362;50.780;0.292;2023-02-21T16:45:54;14.95;;;6.85;;
4696;SDS011;2362;50.780;0.292;2023-02-21T16:48:23;16.77;;;7.50;;
4696;SDS011;2362;50.780;0.292;2023-02-21T16:50:53;16.20;;;9.38;;
4696;SDS011;2362;50.780;0.292;2023-02-21T16:53:19;17.90;;;9.32;;
4696;SDS011;2362;50.780;0.292;2023-02-21T16:55:46;14.70;;;10.05;;
4696;SDS011;2362;50.780;0.292;2023-02-21T16:58:29;27.15;;;13.10;;
4696;SDS011;2362;50.780;0.292;2023-02-21T17:00:58;16.40;;;8.00;;
4696;SDS011;2362;50.780;0.292;2023-02-21T17:03:26;25.42;;;13.30;;
4696;SDS011;2362;50.780;0.292;2023-02-21T17:05:52;25.75;;;14.65;;
4696;SDS011;2362;50.780;0.292;2023-02-21T17:08:20;51.97;;;25.73;;
4696;SDS011;2362;50.780;0.292;2023-02-21T17:10:46;50.53;;;21.70;;
4696;SDS011;2362;50.780;0.292;2023-02-21T17:13:12;30.80;;;15.85;;
4696;SDS011;2362;50.780;0.292;2023-02-21T17:15:37;14.60;;;9.00;;
4696;SDS011;2362;50.780;0.292;2023-02-21T17:18:03;36.67;;;21.65;;
4696;SDS011;2362;50.780;0.292;2023-02-21T17:20:29;69.72;;;35.35;;
4696;SDS011;2362;50.780;0.292;2023-02-21T17:22:55;37.05;;;17.75;;
4696;SDS011;2362;50.780;0.292;2023-02-21T17:25:25;54.13;;;26.13;;
4696;SDS011;2362;50.780;0.292;2023-02-21T17:27:52;45.42;;;21.50;;
4696;SDS011;2362;50.780;0.292;2023-02-21T17:30:19;25.95;;;12.88;;
4696;SDS011;2362;50.780;0.292;2023-02-21T17:32:47;33.00;;;13.70;;
4696;SDS011;2362;50.780;0.292;2023-02-21T17:35:13;39.85;;;20.13;;
4696;SDS011;2362;50.780;0.292;2023-02-21T17:37:41;40.10;;;20.25;;
4696;SDS011;2362;50.780;0.292;2023-02-21T17:40:08;34.92;;;14.77;;
4696;SDS011;2362;50.780;0.292;2023-02-21T17:42:34;36.25;;;17.60;;
4696;SDS011;2362;50.780;0.292;2023-02-21T17:45:00;31.95;;;16.55;;
4696;SDS011;2362;50.780;0.292;2023-02-21T17:47:27;31.10;;;15.18;;
4696;SDS011;2362;50.780;0.292;2023-02-21T17:49:53;28.92;;;12.82;;
4696;SDS011;2362;50.780;0.292;2023-02-21T17:52:21;45.00;;;18.55;;
4696;SDS011;2362;50.780;0.292;2023-02-21T17:54:47;55.47;;;25.77;;
4696;SDS011;2362;50.780;0.292;2023-02-21T17:57:12;30.48;;;15.35;;
4696;SDS011;2362;50.780;0.292;2023-02-21T17:59:38;17.27;;;9.73;;
4696;SDS011;2362;50.780;0.292;2023-02-21T18:02:04;28.83;;;14.07;;
4696;SDS011;2362;50.780;0.292;2023-02-21T18:04:32;32.13;;;14.35;;
4696;SDS011;2362;50.780;0.292;2023-02-21T18:06:58;25.23;;;13.80;;
4696;SDS011;2362;50.780;0.292;2023-02-21T18:09:24;25.33;;;13.90;;
4696;SDS011;2362;50.780;0.292;2023-02-21T18:11:51;24.73;;;14.43;;
4696;SDS011;2362;50.780;0.292;2023-02-21T18:14:19;23.05;;;13.40;;
4696;SDS011;2362;50.780;0.292;2023-02-21T18:16:46;31.10;;;16.20;;
4696;SDS011;2362;50.780;0.292;2023-02-21T18:19:12;35.65;;;14.45;;
4696;SDS011;2362;50.780;0.292;2023-02-21T18:21:38;33.03;;;14.82;;
4696;SDS011;2362;50.780;0.292;2023-02-21T18:24:06;25.92;;;16.42;;
4696;SDS011;2362;50.780;0.292;2023-02-21T18:26:32;68.53;;;31.83;;
4696;SDS011;2362;50.780;0.292;2023-02-21T18:28:58;35.15;;;20.25;;